createdAt,value
2022-08-17T00:00:34.543Z,85.31
2022-08-17T00:03:26.926Z,84.91
2022-08-17T00:06:13.023Z,84.66
2022-08-17T00:08:46.056Z,84.07
2022-08-17T00:11:25.662Z,83.88
2022-08-17T00:13:56.121Z,83.47
2022-08-17T00:16:55.461Z,84.03
2022-08-17T00:19:23.947Z,83.61
2022-08-17T00:22:30.877Z,83.70
2022-08-17T00:24:39.592Z,83.17
2022-08-17T00:27:06.414Z,83.37
2022-08-17T00:29:33.366Z,83.29
2022-08-17T00:32:01.726Z,83.26
2022-08-17T00:34:48.593Z,82.33
2022-08-17T00:37:15.603Z,82.80
2022-08-17T00:39:42.657Z,83.03
2022-08-17T00:42:15.930Z,84.04
2022-08-17T00:44:42.778Z,83.91
2022-08-17T00:47:09.791Z,84.77
2022-08-17T00:49:36.849Z,85.32
2022-08-17T00:52:15.582Z,84.87
2022-08-17T00:54:46.813Z,84.91
2022-08-17T00:57:17.106Z,84.87
2022-08-17T01:00:01.513Z,85.05
2022-08-17T01:02:36.680Z,85.34
2022-08-17T01:05:16.416Z,85.33
2022-08-17T01:07:47.899Z,85.58
2022-08-17T01:11:00.679Z,85.66
2022-08-17T01:13:04.448Z,85.88
2022-08-17T01:15:36.464Z,86.12
2022-08-17T01:18:06.590Z,86.88
2022-08-17T01:20:43.136Z,86.81
2022-08-17T01:23:19.875Z,86.53
2022-08-17T01:25:54.928Z,86.42
2022-08-17T01:28:52.266Z,86.51
2022-08-17T01:31:10.884Z,86.81
2022-08-17T01:33:37.836Z,86.77
2022-08-17T01:36:07.310Z,86.17
2022-08-17T01:38:39.406Z,85.64
2022-08-17T01:41:13.263Z,85.82
2022-08-17T01:43:45.740Z,86.20
2022-08-17T01:46:22.807Z,86.53
2022-08-17T01:48:51.225Z,86.51
2022-08-17T01:51:19.218Z,86.63
2022-08-17T01:53:58.101Z,86.85
2022-08-17T01:56:26.404Z,86.80
2022-08-17T01:58:53.846Z,86.74
2022-08-17T02:01:24.620Z,86.75
2022-08-17T02:03:53.492Z,86.99
2022-08-17T02:06:45.183Z,87.21
2022-08-17T02:09:23.211Z,86.75
2022-08-17T02:11:52.471Z,86.71
2022-08-17T02:14:20.962Z,86.46
2022-08-17T02:16:47.814Z,86.35
2022-08-17T02:19:16.758Z,86.41
2022-08-17T02:21:47.787Z,87.26
2022-08-17T02:24:58.798Z,86.96
2022-08-17T02:27:13.720Z,86.73
2022-08-17T02:29:40.720Z,86.68
2022-08-17T02:32:28.243Z,86.96
2022-08-17T02:34:59.743Z,87.45
2022-08-17T02:37:28.478Z,87.46
2022-08-17T02:39:59.537Z,87.29
2022-08-17T02:42:32.823Z,87.23
2022-08-17T02:45:01.165Z,87.25
2022-08-17T02:47:29.000Z,87.21
2022-08-17T02:49:57.973Z,87.00
2022-08-17T02:52:43.139Z,87.55
2022-08-17T02:55:40.295Z,87.36
2022-08-17T02:58:10.619Z,87.52
2022-08-17T03:00:41.745Z,87.77
2022-08-17T03:03:10.779Z,87.64
2022-08-17T03:05:38.444Z,87.55
2022-08-17T03:08:06.557Z,87.88
2022-08-17T03:10:33.953Z,88.07
2022-08-17T03:13:01.669Z,87.89
2022-08-17T03:15:31.941Z,87.90
2022-08-17T03:17:59.733Z,87.79
2022-08-17T03:20:31.747Z,87.88
2022-08-17T03:23:01.746Z,87.66
2022-08-17T03:25:39.716Z,87.44
2022-08-17T03:28:07.477Z,87.67
2022-08-17T03:30:35.167Z,87.34
2022-08-17T03:33:04.310Z,87.27
2022-08-17T03:35:34.925Z,87.29
2022-08-17T03:38:02.102Z,87.75
2022-08-17T03:40:41.836Z,87.71
2022-08-17T03:43:18.814Z,88.23
2022-08-17T03:46:04.130Z,88.81
2022-08-17T03:48:51.367Z,88.79
2022-08-17T03:51:40.772Z,88.62
2022-08-17T03:54:28.842Z,88.39
2022-08-17T03:57:09.494Z,88.69
2022-08-17T03:59:38.343Z,88.56
2022-08-17T04:02:11.525Z,88.49
2022-08-17T04:04:39.580Z,88.33
2022-08-17T04:07:06.840Z,88.44
2022-08-17T04:09:35.027Z,88.44
2022-08-17T04:12:04.765Z,88.36
2022-08-17T04:14:39.273Z,88.43
2022-08-17T04:17:20.621Z,88.38
2022-08-17T04:19:48.213Z,88.09
2022-08-17T04:22:32.421Z,87.89
2022-08-17T04:25:22.054Z,87.28
2022-08-17T04:27:48.924Z,87.08
2022-08-17T04:30:15.965Z,86.90
2022-08-17T04:33:06.482Z,86.91
2022-08-17T04:35:46.145Z,87.12
2022-08-17T04:38:15.785Z,86.97
2022-08-17T04:41:02.185Z,86.75
2022-08-17T04:43:31.180Z,86.88
2022-08-17T04:46:00.724Z,87.13
2022-08-17T04:48:36.263Z,87.64
2022-08-17T04:51:31.637Z,87.52
2022-08-17T04:54:01.473Z,87.12
2022-08-17T04:56:30.095Z,86.99
2022-08-17T04:59:01.609Z,86.49
2022-08-17T05:01:31.932Z,86.57
2022-08-17T05:04:01.878Z,86.94
2022-08-17T05:06:49.659Z,86.65
2022-08-17T05:09:18.051Z,85.89
2022-08-17T05:11:45.895Z,85.55
2022-08-17T05:14:13.993Z,85.28
2022-08-17T05:16:40.894Z,85.16
2022-08-17T05:19:07.690Z,84.71
2022-08-17T05:21:34.575Z,84.37
2022-08-17T05:24:01.538Z,84.40
2022-08-17T05:26:32.876Z,84.46
2022-08-17T05:29:03.455Z,84.14
2022-08-17T05:31:30.835Z,84.18
2022-08-17T05:33:58.210Z,83.53
2022-08-17T05:36:41.730Z,83.74
2022-08-17T05:39:16.124Z,83.42
2022-08-17T05:41:45.891Z,82.74
2022-08-17T05:44:12.755Z,82.25
2022-08-17T05:46:44.994Z,82.45
2022-08-17T05:49:14.804Z,81.93
2022-08-17T05:51:41.545Z,81.67
2022-08-17T05:54:27.243Z,81.45
2022-08-17T05:57:15.116Z,80.79
2022-08-17T06:00:11.345Z,80.30
2022-08-17T06:02:53.299Z,79.78
2022-08-17T06:05:48.444Z,78.28
2022-08-17T06:09:02.407Z,77.74
2022-08-17T06:12:18.900Z,77.13
2022-08-17T06:15:37.283Z,76.79
2022-08-17T06:18:08.120Z,76.73
2022-08-17T06:21:08.628Z,75.45
2022-08-17T06:23:45.301Z,75.02
2022-08-17T06:26:21.238Z,75.40
2022-08-17T06:29:04.359Z,73.95
2022-08-17T06:31:36.965Z,74.01
2022-08-17T06:34:07.370Z,73.65
2022-08-17T06:36:52.425Z,73.87
2022-08-17T06:39:31.129Z,73.73
2022-08-17T06:43:02.437Z,73.22
2022-08-17T06:45:07.918Z,73.69
2022-08-17T06:47:34.855Z,72.86
2022-08-17T06:50:07.775Z,72.43
2022-08-17T06:52:53.904Z,71.52
2022-08-17T06:55:33.266Z,70.64
2022-08-17T06:58:16.003Z,69.77
2022-08-17T07:00:47.284Z,69.72
2022-08-17T07:03:55.632Z,70.31
2022-08-17T07:06:27.057Z,69.80
2022-08-17T07:09:01.221Z,68.93
2022-08-17T07:11:38.583Z,66.74
2022-08-17T07:14:23.940Z,67.38
2022-08-17T07:16:53.578Z,67.12
2022-08-17T07:19:24.403Z,66.52
2022-08-17T07:22:08.643Z,65.77
2022-08-17T07:24:47.283Z,65.16
2022-08-17T07:27:28.167Z,63.48
2022-08-17T07:30:10.834Z,61.55
2022-08-17T07:32:51.358Z,58.29
2022-08-17T07:35:37.592Z,60.60
2022-08-17T07:38:24.749Z,59.41
2022-08-17T07:41:03.164Z,60.85
2022-08-17T07:43:47.735Z,60.47
2022-08-17T07:46:37.514Z,59.97
2022-08-17T07:49:05.095Z,59.69
2022-08-17T07:51:39.654Z,58.78
2022-08-17T07:54:15.733Z,58.02
2022-08-17T07:56:44.661Z,58.52
2022-08-17T07:59:13.612Z,58.42
2022-08-17T08:01:44.984Z,58.47
2022-08-17T08:07:18.992Z,55.10
2022-08-17T08:10:25.142Z,54.51
2022-08-17T08:13:05.742Z,52.09
2022-08-17T08:15:45.167Z,52.05
2022-08-17T08:18:38.630Z,50.75
2022-08-17T08:21:36.124Z,49.26
2022-08-17T08:24:36.781Z,49.95
2022-08-17T08:27:07.307Z,48.50
2022-08-17T08:29:55.675Z,47.53
2022-08-17T08:32:38.410Z,46.16
2022-08-17T08:35:23.679Z,45.72
2022-08-17T08:37:53.271Z,45.75
2022-08-17T08:40:39.484Z,44.63
2022-08-17T08:43:31.010Z,43.85
2022-08-17T08:46:00.520Z,42.59
2022-08-17T08:49:45.060Z,41.04
2022-08-17T08:52:39.474Z,39.42
2022-08-17T08:55:14.115Z,39.35
2022-08-17T08:58:00.849Z,38.59
2022-08-17T09:00:36.237Z,37.19
2022-08-17T09:03:17.547Z,35.98
2022-08-17T09:06:03.768Z,37.03
2022-08-17T09:08:50.112Z,34.74
2022-08-17T09:12:01.766Z,35.55
2022-08-17T09:14:49.966Z,33.59
2022-08-17T09:17:25.414Z,31.92
2022-08-17T09:20:04.830Z,32.00
2022-08-17T09:22:42.704Z,33.33
2022-08-17T09:25:17.485Z,32.65
2022-08-17T09:28:00.673Z,32.25
2022-08-17T09:30:37.843Z,30.82
2022-08-17T09:33:09.160Z,32.09
2022-08-17T09:35:44.571Z,31.41
2022-08-17T09:38:44.095Z,30.85
2022-08-17T09:41:38.129Z,29.83
2022-08-17T09:44:42.793Z,28.55
2022-08-17T09:47:26.166Z,28.69
2022-08-17T09:50:00.460Z,28.55
2022-08-17T09:52:29.665Z,27.75
2022-08-17T09:55:01.813Z,27.03
2022-08-17T09:57:34.238Z,26.30
2022-08-17T10:00:17.973Z,25.64
2022-08-17T10:03:16.152Z,26.14
2022-08-17T10:05:56.664Z,24.99
2022-08-17T10:08:27.940Z,26.51
2022-08-17T10:11:05.789Z,25.25
2022-08-17T10:13:38.691Z,25.38
2022-08-17T10:16:17.526Z,25.06
2022-08-17T10:18:59.323Z,24.23
2022-08-17T10:21:45.168Z,23.87
2022-08-17T10:24:36.789Z,24.65
2022-08-17T10:27:10.733Z,24.04
2022-08-17T10:29:54.003Z,24.66
2022-08-17T10:32:32.928Z,25.49
2022-08-17T10:35:18.095Z,24.20
2022-08-17T10:37:48.049Z,23.72
2022-08-17T10:40:21.433Z,24.20
2022-08-17T10:42:58.007Z,22.84
2022-08-17T10:45:49.596Z,22.45
2022-08-17T10:48:38.715Z,21.79
2022-08-17T10:51:34.566Z,21.70
2022-08-17T10:54:02.243Z,20.04
2022-08-17T10:56:45.527Z,19.83
2022-08-17T10:59:34.821Z,20.46
2022-08-17T11:02:04.598Z,19.23
2022-08-17T11:04:55.876Z,20.37
2022-08-17T11:07:37.777Z,20.14
2022-08-17T11:10:42.208Z,21.40
2022-08-17T11:13:08.967Z,19.97
2022-08-17T11:15:45.832Z,19.84
2022-08-17T11:18:50.915Z,18.47
2022-08-17T11:21:29.839Z,20.01
2022-08-17T11:24:05.210Z,21.55
2022-08-17T11:26:37.417Z,21.62
2022-08-17T11:29:16.772Z,19.12
2022-08-17T11:31:58.497Z,17.70
2022-08-17T11:34:29.088Z,18.20
2022-08-17T11:37:00.435Z,20.23
2022-08-17T11:39:30.598Z,21.46
2022-08-17T11:42:00.624Z,22.56
2022-08-17T11:44:34.890Z,22.41
2022-08-17T11:47:49.525Z,22.74
2022-08-17T11:51:08.718Z,23.06
2022-08-17T11:53:38.651Z,21.28
2022-08-17T11:56:28.850Z,19.62
2022-08-17T11:58:55.963Z,18.88
2022-08-17T12:01:22.793Z,17.95
2022-08-17T12:04:25.510Z,17.50
2022-08-17T12:07:23.204Z,16.97
2022-08-17T12:09:57.231Z,18.16
2022-08-17T12:12:35.519Z,17.72
2022-08-17T12:15:10.607Z,16.58
2022-08-17T12:17:41.756Z,16.92
2022-08-17T12:20:15.789Z,16.17
2022-08-17T12:22:57.654Z,16.32
2022-08-17T12:25:34.237Z,15.95
2022-08-17T12:28:05.173Z,15.60
2022-08-17T12:30:34.264Z,14.92
2022-08-17T12:33:01.070Z,14.10
2022-08-17T12:35:38.983Z,14.43
2022-08-17T12:38:32.199Z,14.29
2022-08-17T12:40:58.509Z,14.73
2022-08-17T12:43:31.243Z,14.90
2022-08-17T12:46:13.020Z,14.41
2022-08-17T12:48:59.093Z,17.50
2022-08-17T12:51:29.212Z,17.35
2022-08-17T12:53:56.475Z,16.74
2022-08-17T12:56:23.292Z,17.49
2022-08-17T12:58:54.142Z,16.44
2022-08-17T13:01:23.511Z,15.41
2022-08-17T13:03:53.687Z,15.95
2022-08-17T13:06:35.731Z,15.48
2022-08-17T13:09:11.920Z,15.72
2022-08-17T13:11:51.265Z,15.17
2022-08-17T13:14:19.233Z,16.32
2022-08-17T13:16:59.734Z,16.13
2022-08-17T13:19:40.823Z,17.49
2022-08-17T13:22:12.841Z,18.61
2022-08-17T13:24:53.152Z,19.34
2022-08-17T13:27:22.567Z,19.98
2022-08-17T13:29:55.839Z,20.49
2022-08-17T13:32:46.570Z,19.40
2022-08-17T13:35:44.190Z,18.02
2022-08-17T13:38:35.957Z,18.31
2022-08-17T13:41:04.139Z,16.90
2022-08-17T13:43:44.877Z,16.63
2022-08-17T13:46:23.966Z,16.00
2022-08-17T13:49:09.958Z,15.99
2022-08-17T13:51:45.838Z,15.83
2022-08-17T13:54:39.245Z,15.41
2022-08-17T13:57:12.110Z,14.98
2022-08-17T13:59:54.767Z,15.56
2022-08-17T14:02:26.104Z,14.79
2022-08-17T14:04:56.816Z,15.01
2022-08-17T14:07:29.147Z,14.32
2022-08-17T14:10:10.756Z,14.52
2022-08-17T14:12:40.240Z,14.37
2022-08-17T14:15:08.815Z,14.80
2022-08-17T14:17:38.909Z,15.14
2022-08-17T14:20:20.051Z,14.70
2022-08-17T14:22:51.551Z,15.20
2022-08-17T14:25:22.141Z,16.37
2022-08-17T14:27:53.456Z,16.12
2022-08-17T14:30:25.667Z,15.68
2022-08-17T14:32:54.400Z,16.25
2022-08-17T14:35:23.928Z,15.17
2022-08-17T14:37:51.946Z,14.96
2022-08-17T14:40:20.901Z,15.61
2022-08-17T14:42:48.244Z,15.65
2022-08-17T14:45:31.983Z,15.10
2022-08-17T14:48:04.161Z,15.18
2022-08-17T14:50:31.813Z,15.11
2022-08-17T14:52:59.322Z,16.05
2022-08-17T14:55:29.832Z,15.73
2022-08-17T14:57:57.086Z,15.54
2022-08-17T15:00:25.461Z,15.58
2022-08-17T15:02:56.681Z,15.55
2022-08-17T15:05:27.805Z,15.27
2022-08-17T15:07:55.794Z,15.38
2022-08-17T15:10:24.751Z,15.39
2022-08-17T15:12:53.004Z,15.77
2022-08-17T15:15:20.380Z,15.91
2022-08-17T15:17:47.470Z,15.26
2022-08-17T15:20:17.857Z,15.68
2022-08-17T15:22:47.060Z,15.49
2022-08-17T15:25:14.597Z,15.14
2022-08-17T15:27:42.100Z,15.45
2022-08-17T15:30:10.618Z,15.70
2022-08-17T15:32:41.297Z,15.95
2022-08-17T15:35:18.211Z,16.19
2022-08-17T15:37:45.283Z,16.74
2022-08-17T15:40:13.312Z,16.59
2022-08-17T15:42:41.384Z,17.38
2022-08-17T15:45:12.818Z,17.04
2022-08-17T15:47:40.596Z,16.70
2022-08-17T15:50:10.148Z,16.86
2022-08-17T15:52:40.297Z,17.12
2022-08-17T15:55:11.496Z,16.55
2022-08-17T15:57:38.976Z,16.71
2022-08-17T16:00:08.727Z,17.87
2022-08-17T16:03:13.739Z,17.60
2022-08-17T16:05:25.294Z,18.34
2022-08-17T16:07:53.408Z,18.80
2022-08-17T16:10:21.134Z,19.37
2022-08-17T16:12:50.088Z,20.03
2022-08-17T16:15:18.680Z,20.40
2022-08-17T16:17:46.177Z,21.37
2022-08-17T16:20:19.543Z,21.24
2022-08-17T16:22:50.190Z,21.54
2022-08-17T16:25:51.884Z,22.57
2022-08-17T16:28:11.411Z,22.08
2022-08-17T16:30:38.363Z,22.43
2022-08-17T16:33:05.970Z,22.69
2022-08-17T16:35:33.357Z,23.17
2022-08-17T16:38:00.271Z,23.05
2022-08-17T16:40:29.536Z,22.76
2022-08-17T16:42:58.131Z,22.27
2022-08-17T16:45:27.894Z,22.15
2022-08-17T16:47:59.191Z,21.83
2022-08-17T16:50:26.339Z,21.37
2022-08-17T16:53:06.722Z,21.79
2022-08-17T16:55:37.473Z,22.20
2022-08-17T16:58:05.719Z,22.78
2022-08-17T17:00:33.868Z,23.16
2022-08-17T17:03:19.973Z,23.68
2022-08-17T17:06:07.147Z,24.55
2022-08-17T17:08:48.557Z,25.94
2022-08-17T17:11:26.651Z,26.32
2022-08-17T17:14:01.558Z,26.99
2022-08-17T17:16:57.157Z,26.35
2022-08-17T17:19:34.918Z,27.69
2022-08-17T17:22:13.955Z,27.20
2022-08-17T17:25:08.876Z,27.67
2022-08-17T17:27:36.500Z,28.70
2022-08-17T17:30:20.849Z,28.28
2022-08-17T17:33:07.010Z,29.39
2022-08-17T17:36:06.937Z,29.66
2022-08-17T17:38:49.037Z,29.70
2022-08-17T17:41:26.106Z,30.09
2022-08-17T17:44:01.692Z,30.02
2022-08-17T17:46:38.027Z,30.68
2022-08-17T17:49:06.205Z,31.41
2022-08-17T17:52:05.296Z,31.37
2022-08-17T17:54:48.982Z,31.62
2022-08-17T17:57:30.096Z,32.02
2022-08-17T18:00:14.166Z,32.51
2022-08-17T18:02:52.061Z,33.32
2022-08-17T18:05:45.114Z,33.73
2022-08-17T18:08:34.929Z,34.21
2022-08-17T18:11:36.274Z,35.02
2022-08-17T18:14:31.202Z,35.89
2022-08-17T18:17:01.259Z,35.69
2022-08-17T18:19:31.347Z,36.06
2022-08-17T18:22:16.223Z,36.80
2022-08-17T18:24:46.633Z,36.81
2022-08-17T18:27:24.483Z,36.72
2022-08-17T18:29:55.928Z,36.51
2022-08-17T18:32:29.145Z,36.67
2022-08-17T18:35:19.434Z,37.32
2022-08-17T18:37:52.820Z,37.95
2022-08-17T18:40:20.532Z,37.66
2022-08-17T18:42:50.258Z,37.64
2022-08-17T18:45:49.007Z,38.17
2022-08-17T18:48:28.400Z,38.77
2022-08-17T18:50:59.611Z,38.81
2022-08-17T18:53:33.968Z,38.92
2022-08-17T18:56:16.576Z,40.00
2022-08-17T18:59:10.320Z,41.40
2022-08-17T19:01:53.422Z,41.18
2022-08-17T19:04:41.446Z,42.34
2022-08-17T19:07:17.438Z,42.61
2022-08-17T19:09:56.978Z,41.71
2022-08-17T19:12:33.346Z,41.97
2022-08-17T19:15:01.103Z,42.20
2022-08-17T19:18:00.511Z,42.30
2022-08-17T19:20:53.906Z,42.44
2022-08-17T19:23:53.735Z,43.48
2022-08-17T19:26:50.656Z,43.37
2022-08-17T19:29:25.700Z,42.72
2022-08-17T19:31:55.593Z,42.06
2022-08-17T19:34:33.462Z,42.18
2022-08-17T19:37:01.290Z,42.41
2022-08-17T19:39:40.364Z,42.56
2022-08-17T19:42:19.727Z,43.08
2022-08-17T19:44:56.422Z,43.08
2022-08-17T19:47:55.618Z,44.20
2022-08-17T19:50:47.400Z,44.08
2022-08-17T19:53:36.888Z,44.44
2022-08-17T19:56:34.935Z,44.48
2022-08-17T19:59:21.128Z,44.80
2022-08-17T20:01:53.036Z,45.58
2022-08-17T20:04:32.350Z,45.42
2022-08-17T20:07:09.134Z,46.89
2022-08-17T20:09:44.657Z,47.96
2022-08-17T20:12:19.058Z,47.40
2022-08-17T20:15:25.394Z,48.19
2022-08-17T20:17:53.454Z,49.15
2022-08-17T20:20:39.211Z,48.47
2022-08-17T20:23:30.722Z,48.28
2022-08-17T20:26:19.445Z,48.79
2022-08-17T20:29:08.172Z,49.38
2022-08-17T20:31:56.015Z,49.42
2022-08-17T20:34:33.708Z,49.74
2022-08-17T20:37:08.619Z,49.58
2022-08-17T20:39:45.773Z,49.82
2022-08-17T20:42:21.653Z,50.58
2022-08-17T20:44:51.790Z,50.38
2022-08-17T20:47:27.333Z,50.03
2022-08-17T20:50:26.944Z,49.97
2022-08-17T20:52:57.938Z,49.80
2022-08-17T20:55:34.123Z,49.73
2022-08-17T20:58:16.420Z,50.05
2022-08-17T21:01:08.627Z,50.00
2022-08-17T21:03:49.263Z,50.28
2022-08-17T21:06:20.980Z,50.35
2022-08-17T21:08:57.610Z,49.74
2022-08-17T21:12:01.469Z,49.17
2022-08-17T21:14:39.780Z,49.32
2022-08-17T21:17:33.704Z,50.31
2022-08-17T21:20:11.980Z,50.32
2022-08-17T21:23:01.541Z,50.10
2022-08-17T21:25:48.934Z,50.80
2022-08-17T21:28:23.185Z,51.50
2022-08-17T21:31:08.978Z,51.76
2022-08-17T21:33:39.121Z,51.92
2022-08-17T21:36:12.014Z,52.12
2022-08-17T21:38:47.964Z,52.52
2022-08-17T21:41:26.433Z,53.08
2022-08-17T21:44:02.741Z,53.26
2022-08-17T21:46:36.941Z,53.30
2022-08-17T21:49:13.771Z,53.44
2022-08-17T21:51:51.270Z,53.90
2022-08-17T21:54:38.888Z,54.24
2022-08-17T21:57:15.636Z,55.41
2022-08-17T21:59:44.334Z,55.34
2022-08-17T22:02:35.384Z,55.66
2022-08-17T22:05:07.536Z,56.47
2022-08-17T22:07:40.820Z,56.42
2022-08-17T22:10:30.500Z,56.39
2022-08-17T22:13:21.533Z,57.18
2022-08-17T22:15:49.957Z,57.18
2022-08-17T22:18:25.265Z,57.12
2022-08-17T22:20:55.387Z,57.60
2022-08-17T22:23:47.963Z,57.67
2022-08-17T22:26:17.821Z,58.10
2022-08-17T22:28:58.318Z,57.73
2022-08-17T22:31:28.860Z,57.77
2022-08-17T22:34:01.594Z,56.87
2022-08-17T22:36:39.471Z,55.96
2022-08-17T22:39:09.097Z,54.97
2022-08-17T22:41:47.576Z,54.84
2022-08-17T22:44:47.003Z,54.63
2022-08-17T22:47:17.221Z,54.89
2022-08-17T22:49:53.248Z,55.46
2022-08-17T22:52:32.876Z,55.42
2022-08-17T22:55:22.823Z,55.98
2022-08-17T22:58:10.463Z,55.83
2022-08-17T23:00:43.523Z,56.39
2022-08-17T23:03:17.886Z,57.12
2022-08-17T23:05:49.012Z,56.82
2022-08-17T23:08:21.229Z,57.21
2022-08-17T23:10:48.656Z,57.63
2022-08-17T23:13:15.726Z,57.56
2022-08-17T23:15:43.078Z,58.17
2022-08-17T23:18:10.088Z,58.72
2022-08-17T23:20:41.838Z,58.13
2022-08-17T23:23:11.392Z,58.54
2022-08-17T23:25:38.581Z,58.81
2022-08-17T23:28:07.031Z,58.93
2022-08-17T23:30:39.357Z,59.22
2022-08-17T23:33:10.857Z,59.38
2022-08-17T23:35:39.868Z,59.85
2022-08-17T23:38:09.617Z,59.66
2022-08-17T23:40:37.808Z,59.80
2022-08-17T23:45:57.433Z,59.84
2022-08-17T23:48:32.666Z,60.01
2022-08-17T23:51:08.786Z,60.04
2022-08-17T23:53:39.082Z,60.06
2022-08-17T23:56:10.349Z,60.34
2022-08-17T23:58:39.867Z,60.88
